Flight Track Log - Related Links

Times and Time Zones

All times are in EDT time to prevent confusion due to time zone crossing. See the N23WJ flight status page for this flight to view local times or setup timezone preferences in your user account.

Time Position Orientation Groundspeed Altitude Reporting Facility
EDT Latitude Longitude Course Direction KTS MPH feet Rate Location/Type
Wed 08:18:08 AM 34.0167 -84.5333 160° South 166 191 3,000  Level Atlanta TRACON
Wed 08:19:08 AM 34.0000 -84.4667 107° East 203 234 4,200 1,043 Climbing Atlanta TRACON
Wed 08:20:03 AM 33.9667 -84.4333 140° Southeast 196 226 5,000 421 Climbing Atlanta TRACON
Wed 08:21:02 AM 33.9000 -84.4167 168° South 237 273 5,000  Level Atlanta TRACON
Wed 08:22:02 AM 33.8333 -84.4000 168° South 245 282 5,000  Level Atlanta TRACON
Wed 08:22:56 AM 33.7833 -84.4000 180° South 244 281 5,000  Level Atlanta TRACON
Wed 08:23:00 AM 33.6330 -84.3621 160° South  Level Estimated
Wed 08:23:56 AM 33.7000 -84.4000 180° South 238 274 5,000  Level Atlanta TRACON
Wed 08:24:51 AM 33.6500 -84.4000 180° South 238 274 5,000 313 Level Atlanta TRACON
Wed 08:25:51 AM 33.5833 -84.3833 168° South 237 273 5,600 504 Climbing Atlanta TRACON
Wed 08:26:50 AM 33.5167 -84.3833 180° South 234 269 6,000 211 Climbing Atlanta TRACON
Wed 08:27:45 AM 33.4667 -84.3833 180° South 249 287 6,000  Level Atlanta TRACON
Wed 08:28:45 AM 33.4000 -84.3333 148° Southeast 265 305 6,000 393 Level Atlanta TRACON
Wed 08:29:32 AM 33.3619 -84.2900 136° Southeast 247 284 6,700 1,178 Climbing Atlanta Center
Wed 08:30:32 AM 33.3161 -84.2500 144° Southeast 239 275 8,100 1,500 Climbing Atlanta Center
Wed 08:31:32 AM 33.2661 -84.2078 145° Southeast 223 257 9,700 1,450 Climbing Atlanta Center
Wed 08:32:32 AM 33.2181 -84.1556 138° Southeast 223 257 11,000 650 Climbing Atlanta Center
Wed 08:33:32 AM 33.1597 -84.1256 157° South 223 257 11,000  Level Atlanta Center
Wed 08:34:32 AM 33.0886 -84.0983 162° South 252 290 11,000  Level Atlanta Center
Wed 08:35:32 AM 33.0261 -84.0758 163° South 263 303 11,000 250 Level Atlanta Center
Wed 08:36:32 AM 32.9594 -84.0536 164° South 263 303 11,500 1,100 Climbing Atlanta Center
Wed 08:37:32 AM 32.8989 -84.0339 165° South 246 283 13,200 1,450 Climbing Atlanta Center
Wed 08:38:32 AM 32.8383 -84.0192 168° South 233 268 14,400 1,250 Climbing Atlanta Center
Wed 08:39:32 AM 32.7778 -83.9969 163° South 227 261 15,700 1,450 Climbing Atlanta Center
Wed 08:40:32 AM 32.7192 -83.9747 162° South 222 255 17,300 1,450 Climbing Atlanta Center
Wed 08:41:32 AM 32.6628 -83.9525 162° South 222 255 18,600 1,300 Climbing Atlanta Center
Wed 08:42:32 AM 32.6044 -83.9278 160° South 222 255 19,900 1,300 Climbing Atlanta Center
Wed 08:43:32 AM 32.5481 -83.9058 162° South 222 255 21,200 1,400 Climbing Atlanta Center
Wed 08:44:32 AM 32.4958 -83.8861 162° South 222 255 22,700 1,400 Climbing Atlanta Center
Wed 08:45:32 AM 32.4458 -83.8689 164° South 209 241 24,000 1,150 Climbing Atlanta Center
Wed 08:46:32 AM 32.3894 -83.8494 164° South 203 234 25,000 750 Climbing Atlanta Center
Wed 08:47:32 AM 32.3289 -83.8300 165° South 216 249 25,500 612 Climbing Atlanta Center
Wed 08:49:48 AM 32.1864 -83.7786 163° South 226 260 27,000 459 Climbing Jacksonville Center
Wed 08:50:48 AM 32.1136 -83.7536 164° South 251 289 27,000  Level Jacksonville Center
Wed 08:51:48 AM 32.0406 -83.7258 162° South 266 306 27,000  Level Jacksonville Center
Wed 08:52:48 AM 31.9678 -83.6983 162° South 271 312 27,000  Level Jacksonville Center
Wed 08:53:48 AM 31.8886 -83.6731 165° South 283 326 27,000  Level Jacksonville Center
Wed 08:54:48 AM 31.8136 -83.6431 161° South 283 326 27,000  Level Jacksonville Center
Wed 08:55:48 AM 31.7406 -83.6156 162° South 283 326 27,000  Level Jacksonville Center
Wed 08:56:48 AM 31.6636 -83.5906 165° South 284 327 27,000  Level Jacksonville Center
Wed 08:57:48 AM 31.5947 -83.5658 163° South 284 327 27,000  Level Jacksonville Center
Wed 08:58:48 AM 31.5197 -83.5408 164° South 279 321 27,000  Level Jacksonville Center
Wed 08:59:48 AM 31.4447 -83.5158 164° South 279 321 27,000  Level Jacksonville Center
Wed 09:00:48 AM 31.3697 -83.4886 163° South 279 321 27,000  Level Jacksonville Center
Wed 09:01:48 AM 31.2947 -83.4614 163° South 279 321 27,000  Level Jacksonville Center
Wed 09:02:48 AM 31.2217 -83.4367 164° South 279 321 27,000  Level Jacksonville Center
Wed 09:03:48 AM 31.1486 -83.4072 161° South 284 327 27,000  Level Jacksonville Center
Wed 09:04:48 AM 31.0714 -83.3825 165° South 284 327 27,000  Level Jacksonville Center
Wed 09:05:48 AM 30.9964 -83.3556 163° South 284 327 27,000  Level Jacksonville Center
Wed 09:06:48 AM 30.9236 -83.3286 162° South 284 327 27,000  Level Jacksonville Center
Wed 09:07:48 AM 30.8464 -83.3039 165° South 284 327 27,000  Level Jacksonville Center
Wed 09:08:48 AM 30.7669 -83.2697 160° South 284 327 27,000  Level Jacksonville Center
Wed 09:09:48 AM 30.6942 -83.2356 158° South 284 327 27,000  Level Jacksonville Center
Wed 09:10:48 AM 30.6189 -83.1992 157° South 289 333 27,000  Level Jacksonville Center
Wed 09:11:48 AM 30.5461 -83.1628 157° South 289 333 27,000  Level Jacksonville Center
Wed 09:12:48 AM 30.4750 -83.1239 155° Southeast 289 333 27,000  Level Jacksonville Center
Wed 09:13:48 AM 30.4019 -83.0900 158° South 289 333 27,000  Level Jacksonville Center
Wed 09:14:48 AM 30.3292 -83.0539 157° South 289 333 27,000  Level Jacksonville Center
Wed 09:15:48 AM 30.2561 -83.0175 157° South 289 333 27,000  Level Jacksonville Center
Wed 09:16:48 AM 30.1831 -82.9814 157° South 289 333 27,000  Level Jacksonville Center
Wed 09:17:48 AM 30.1119 -82.9478 158° South 289 333 27,000  Level Jacksonville Center
Wed 09:18:48 AM 30.0389 -82.9094 156° South 289 333 27,000  Level Jacksonville Center
Wed 09:19:48 AM 29.9681 -82.8781 159° South 289 333 27,000  Level Jacksonville Center
Wed 09:20:48 AM 29.8950 -82.8400 156° South 289 333 27,000  Level Jacksonville Center
Wed 09:21:48 AM 29.8239 -82.8064 158° South 289 333 27,000  Level Jacksonville Center
Wed 09:22:48 AM 29.7528 -82.7706 156° South 284 327 27,000  Level Jacksonville Center
Wed 09:23:48 AM 29.6797 -82.7347 157° South 284 327 27,000  Level Jacksonville Center
Wed 09:24:48 AM 29.6067 -82.6992 157° South 284 327 27,000  Level Jacksonville Center
Wed 09:25:48 AM 29.5356 -82.6633 156° South 279 321 27,000  Level Jacksonville Center
Wed 09:26:48 AM 29.4603 -82.6231 155° Southeast 279 321 27,000  Level Jacksonville Center
Wed 09:27:48 AM 29.3894 -82.5900 158° South 284 327 27,000  Level Jacksonville Center
Wed 09:28:48 AM 29.3308 -82.5592 155° Southeast 284 327 27,000  Level Jacksonville Center
Wed 09:29:48 AM 29.2575 -82.5261 159° South 284 327 27,000  Level Jacksonville Center
Wed 09:30:48 AM 29.1803 -82.4883 157° South 284 327 27,000  Level Jacksonville Center
Wed 09:31:48 AM 29.1092 -82.4528 156° South 279 321 27,000  Level Jacksonville Center
Wed 09:32:48 AM 29.0319 -82.4461 176° South 274 315 27,000  Level Jacksonville Center
Wed 09:33:48 AM 28.9569 -82.4536 185° South 274 315 27,000  Level Jacksonville Center
Wed 09:34:48 AM 28.8797 -82.4586 183° South 274 315 27,000  Level Jacksonville Center
Wed 09:35:48 AM 28.8025 -82.4636 183° South 274 315 27,000  Level Jacksonville Center
Wed 09:36:48 AM 28.7253 -82.4664 182° South 274 315 27,000  Level Jacksonville Center
Wed 09:37:48 AM 28.6417 -82.4761 186° South 274 315 27,000  Level Jacksonville Center
Wed 09:38:48 AM 28.5644 -82.4789 182° South 274 315 27,000  Level Jacksonville Center
Wed 09:39:48 AM 28.4872 -82.4839 183° South 274 315 27,000  Level Jacksonville Center
Wed 09:40:48 AM 28.4122 -82.4867 182° South 274 315 27,000  Level Jacksonville Center
Wed 09:43:06 AM 28.2336 -82.4975 183° South 282 325 27,000  Level Miami Center
Wed 09:44:06 AM 28.1544 -82.5006 182° South 287 330 27,000  Level Miami Center
Wed 09:45:06 AM 28.0789 -82.5083 185° South 287 330 27,000  Level Miami Center
Wed 09:46:06 AM 27.9994 -82.5117 182° South 287 330 27,000  Level Miami Center
Wed 09:47:06 AM 27.9206 -82.5031 174° South 287 330 27,000  Level Miami Center
Wed 09:48:06 AM 27.8553 -82.4644 152° Southeast 276 318 27,000  Level Miami Center
Wed 09:49:06 AM 27.7947 -82.4169 145° Southeast 276 318 27,000 -400 Level Miami Center
Wed 09:50:06 AM 27.7297 -82.3692 147° Southeast 290 334 26,200 -900 Descending Miami Center
Wed 09:51:06 AM 27.6483 -82.3114 148° Southeast 308 354 25,200 -1,100 Descending Miami Center
Wed 09:52:06 AM 27.5756 -82.2542 145° Southeast 319 367 24,000 -1,050 Descending Miami Center
Wed 09:53:06 AM 27.5003 -82.2014 148° Southeast 324 373 23,100 -500 Descending Miami Center
Wed 09:54:06 AM 27.4353 -82.1539 147° Southeast 318 366 23,000 -50 Descending Miami Center
Wed 09:55:06 AM 27.3661 -82.1064 149° Southeast 307 353 23,000  Level Miami Center
Wed 09:56:06 AM 27.2906 -82.0539 148° Southeast 294 338 23,000  Level Miami Center
Wed 09:57:06 AM 27.2236 -82.0042 147° Southeast 288 331 23,000  Level Miami Center
Wed 09:58:06 AM 27.1583 -81.9592 148° Southeast 281 323 23,000  Level Miami Center
Wed 09:59:06 AM 27.1014 -81.9147 145° Southeast 281 323 23,000  Level Miami Center
Wed 10:00:06 AM 27.0342 -81.8700 149° Southeast 281 323 23,000  Level Miami Center
Wed 10:01:06 AM 26.9608 -81.8203 149° Southeast 287 330 23,000  Level Miami Center
Wed 10:02:06 AM 26.8933 -81.7753 149° Southeast 287 330 23,000 -150 Level Miami Center
Wed 10:03:06 AM 26.8283 -81.7239 145° Southeast 287 330 22,700 -750 Descending Miami Center
Wed 10:04:06 AM 26.7592 -81.6719 146° Southeast 287 330 21,500 -1,200 Descending Miami Center
Wed 10:05:06 AM 26.6878 -81.6203 147° Southeast 292 336 20,300 -1,450 Descending Miami Center
Wed 10:06:06 AM 26.6142 -81.5686 148° Southeast 300 345 18,600 -1,500 Descending Miami Center
Wed 10:07:06 AM 26.5514 -81.5103 140° Southeast 305 351 17,300 -1,500 Descending Miami Center
Wed 10:08:06 AM 26.5033 -81.4458 130° Southeast 299 344 15,600 -1,950 Descending Miami Center
Wed 10:09:06 AM 26.4469 -81.3786 133° Southeast 299 344 13,400 -2,150 Descending Miami Center
Wed 10:10:06 AM 26.3925 -81.3164 134° Southeast 299 344 11,300 -1,200 Descending Miami Center
Wed 10:11:06 AM 26.3422 -81.2564 133° Southeast 281 323 11,000 -150 Descending Miami Center
Wed 10:12:06 AM 26.2958 -81.1992 132° Southeast 267 307 11,000 -800 Level Miami Center
Wed 10:13:06 AM 26.2475 -81.1372 131° Southeast 261 300 9,400 -2,000 Descending Miami Center
Wed 10:14:06 AM 26.1992 -81.0800 133° Southeast 255 293 7,000 -1,700 Descending Miami Center
Wed 10:15:06 AM 26.1631 -81.0256 126° Southeast 237 273 6,000 -500 Descending Miami Center
Wed 10:16:06 AM 26.1267 -80.9803 132° Southeast 215 247 6,000 -400 Level Miami Center
Wed 10:17:06 AM 26.0947 -80.9258 123° Southeast 202 232 5,200 -950 Descending Miami Center
Wed 10:18:06 AM 26.1008 -80.8636 84° East 190 219 4,100 -600 Descending Miami Center
Wed 10:19:06 AM 26.1064 -80.8083 84° East 178 205 4,000 -50 Descending Miami Center
Wed 10:20:06 AM 26.1142 -80.7483 82° East 178 205 4,000  Level Miami Center
Wed 10:21:06 AM 26.1261 -80.6911 77° East 184 212 4,000 -150 Level Miami Center
Wed 10:22:06 AM 26.1342 -80.6311 81° East 184 212 3,700 -432 Descending Miami Center
Wed 10:23:25 AM 26.1447 -80.5411 83° East 194 223 3,000 -383 Descending Miami Center
Wed 10:24:27 AM 26.1564 -80.4861 77° East 187 215 2,800 -465 Descending Miami Center
Wed 10:25:34 AM 26.1664 -80.4217 80° East 193 222 2,000 -375 Descending Miami Center
Wed 10:26:35 AM 26.1742 -80.3594 82° East 192 221 2,000  Level Miami Center
Wed 10:27:31 AM 26.1839 -80.3039 79° East 195 224 2,000 -256 Level Miami Center
Wed 10:28:32 AM 26.1892 -80.2556 83° East 156 180 1,500 -738 Descending Miami Center
Wed 10:29:33 AM 26.1944 -80.2094 83° East 125 144 500 -984 Descending Miami Center
Wed 10:31:00 AM 26.1833 -80.1667 336° Northwest  Level FlightAware Approximate
Wed 10:38:00 AM 26.1973 -80.1707 336° Northwest  Level Estimated

Login

Don't have an account? Register now (free) for customized features, flight alerts, and more!